Time;durP1;ratioP1;P1;durP2;ratioP2;P2;SDS_P1;SDS_P2;PMS_P1;PMS_P2;Temp;Humidity;BMP_temperature;BMP_pressure;BME280_temperature;BME280_humidity;BME280_pressure;Samples;Min_cycle;Max_cycle;Signal;HPM_P1;HPM_P2
2022/07/09 00:02:11;;;;;;;12.82;4.88;;;18.30;99.90;;;;;;5045892;28;20429;-72
2022/07/09 00:04:38;;;;;;;7.50;4.20;;;18.30;99.90;;;;;;5038925;28;20092;-72
2022/07/09 00:07:05;;;;;;;7.28;3.95;;;18.30;99.90;;;;;;5038796;28;20509;-72
2022/07/09 00:09:33;;;;;;;7.22;4.45;;;18.30;99.90;;;;;;5038083;28;20073;-71
2022/07/09 00:12:00;;;;;;;9.15;4.65;;;18.20;99.90;;;;;;5057353;28;20022;-72
2022/07/09 00:14:29;;;;;;;7.43;4.80;;;18.20;99.90;;;;;;5059912;28;20038;-71
2022/07/09 00:16:58;;;;;;;8.93;4.43;;;18.20;99.90;;;;;;5060053;28;20045;-71
2022/07/09 00:19:25;;;;;;;8.15;4.03;;;18.20;99.90;;;;;;5076132;28;20045;-71
2022/07/09 00:21:52;;;;;;;9.73;4.78;;;18.10;99.90;;;;;;5061310;28;20045;-71
2022/07/09 00:24:19;;;;;;;8.88;4.50;;;18.10;99.90;;;;;;5038327;28;20127;-72
2022/07/09 00:26:47;;;;;;;10.95;4.30;;;18.10;99.90;;;;;;5035218;28;20525;-72
2022/07/09 00:29:14;;;;;;;8.13;4.75;;;18.10;99.90;;;;;;5034699;28;20476;-72
2022/07/09 00:31:41;;;;;;;10.48;4.53;;;18.10;99.90;;;;;;5035994;28;20497;-72
2022/07/09 00:34:10;;;;;;;9.88;4.22;;;18.10;99.90;;;;;;5035269;28;20100;-71
2022/07/09 00:36:37;;;;;;;9.70;4.43;;;18.20;99.90;;;;;;5035998;28;20037;-72
2022/07/09 00:39:05;;;;;;;9.43;4.50;;;18.20;99.90;;;;;;5035518;28;20485;-72
2022/07/09 00:41:32;;;;;;;9.93;4.43;;;18.20;99.90;;;;;;5035402;28;20103;-72
2022/07/09 00:43:59;;;;;;;6.07;4.13;;;18.20;99.90;;;;;;5035553;28;20046;-71
2022/07/09 00:46:26;;;;;;;7.78;3.92;;;18.20;99.90;;;;;;5036148;28;20041;-71
2022/07/09 00:48:54;;;;;;;8.43;4.50;;;18.20;99.90;;;;;;5035967;28;20489;-71
2022/07/09 00:51:22;;;;;;;8.82;4.32;;;18.20;99.90;;;;;;5036677;28;20508;-72
2022/07/09 00:53:51;;;;;;;7.90;3.95;;;18.20;99.90;;;;;;5036178;28;20065;-71
2022/07/09 00:56:19;;;;;;;11.45;4.05;;;18.20;99.90;;;;;;5037046;28;20041;-71
2022/07/09 00:58:47;;;;;;;9.80;4.35;;;18.20;99.90;;;;;;5044003;28;20104;-71
2022/07/09 01:01:14;;;;;;;7.70;4.22;;;18.20;99.90;;;;;;5052325;28;20045;-71
2022/07/09 01:03:41;;;;;;;9.57;4.38;;;18.20;99.90;;;;;;5034992;28;20045;-71
2022/07/09 01:06:09;;;;;;;6.85;4.07;;;18.20;99.90;;;;;;5035337;28;20539;-71
2022/07/09 01:08:38;;;;;;;9.27;4.32;;;18.20;99.90;;;;;;5035285;28;20100;-72
2022/07/09 01:11:05;;;;;;;8.40;4.22;;;18.20;99.90;;;;;;5035054;28;20052;-71
2022/07/09 01:13:33;;;;;;;10.70;4.18;;;18.10;99.90;;;;;;5034679;28;20489;-72
2022/07/09 01:16:00;;;;;;;19.25;4.82;;;18.20;99.90;;;;;;5035248;28;20102;-71
2022/07/09 01:18:27;;;;;;;10.45;4.50;;;18.10;99.90;;;;;;5034818;28;20065;-72
2022/07/09 01:20:56;;;;;;;7.88;4.15;;;18.10;99.90;;;;;;5034814;28;20057;-72
2022/07/09 01:23:24;;;;;;;9.93;4.32;;;18.10;99.90;;;;;;5034192;28;20504;-71
2022/07/09 01:25:51;;;;;;;9.63;4.30;;;18.10;99.90;;;;;;5035313;28;20048;-71
2022/07/09 01:28:19;;;;;;;7.70;4.40;;;18.10;99.90;;;;;;5034876;28;20049;-71
2022/07/09 01:30:47;;;;;;;6.90;4.38;;;18.10;99.90;;;;;;5034920;28;20041;-71
2022/07/09 01:33:15;;;;;;;10.13;4.78;;;18.10;99.90;;;;;;5017034;28;20132;-71
2022/07/09 01:35:42;;;;;;;10.18;4.70;;;18.10;99.90;;;;;;5035054;28;20037;-71
2022/07/09 01:38:11;;;;;;;9.35;4.95;;;18.10;99.90;;;;;;5035132;28;20043;-72
2022/07/09 01:40:38;;;;;;;11.35;4.88;;;18.00;99.90;;;;;;5034137;28;20443;-71
2022/07/09 01:43:06;;;;;;;42.90;29.67;;;18.10;99.90;;;;;;5034466;28;20042;-71
2022/07/09 01:45:33;;;;;;;9.30;4.57;;;18.10;99.90;;;;;;5034216;28;20127;-71
2022/07/09 01:48:01;;;;;;;8.13;4.82;;;18.10;99.90;;;;;;5034219;28;20076;-71
2022/07/09 01:50:28;;;;;;;11.65;4.93;;;18.00;99.90;;;;;;5034295;28;20054;-71
2022/07/09 01:52:55;;;;;;;14.13;4.97;;;18.00;99.90;;;;;;5034299;28;20492;-71
2022/07/09 01:55:24;;;;;;;10.75;4.80;;;18.00;99.90;;;;;;5034022;28;20046;-71
2022/07/09 01:57:51;;;;;;;7.78;4.53;;;18.00;99.90;;;;;;5035112;28;20552;-71
2022/07/09 02:00:19;;;;;;;7.05;4.50;;;17.90;99.90;;;;;;5054080;28;20488;-71
2022/07/09 02:02:46;;;;;;;6.93;4.75;;;17.70;99.90;;;;;;5038350;28;20042;-71
2022/07/09 02:05:14;;;;;;;7.32;4.90;;;17.70;99.90;;;;;;5034209;28;20047;-72
2022/07/09 02:07:41;;;;;;;9.50;4.45;;;17.60;99.90;;;;;;5033879;28;20034;-73
2022/07/09 02:10:09;;;;;;;7.47;4.78;;;17.50;99.90;;;;;;5033927;28;20049;-73
2022/07/09 02:12:38;;;;;;;6.97;4.30;;;17.50;99.90;;;;;;5033960;28;20049;-72
2022/07/09 02:15:06;;;;;;;8.85;4.78;;;17.40;99.90;;;;;;5033893;28;20489;-73
2022/07/09 02:17:34;;;;;;;8.82;4.57;;;17.40;99.90;;;;;;5032202;28;20049;-72
2022/07/09 02:20:01;;;;;;;7.97;4.53;;;17.40;99.90;;;;;;5046063;28;20047;-71
2022/07/09 02:22:28;;;;;;;10.18;5.07;;;17.30;99.90;;;;;;5051056;28;20068;-70
2022/07/09 02:24:56;;;;;;;8.55;4.68;;;17.30;99.90;;;;;;5033866;28;20137;-71
2022/07/09 02:27:23;;;;;;;8.80;4.90;;;17.30;99.90;;;;;;5033787;28;20061;-71
2022/07/09 02:29:52;;;;;;;9.60;5.03;;;17.20;99.90;;;;;;5033636;28;20041;-71
2022/07/09 02:32:19;;;;;;;9.57;5.38;;;17.10;99.90;;;;;;5033564;28;20094;-71
2022/07/09 02:34:46;;;;;;;12.75;5.75;;;17.10;99.90;;;;;;5033504;28;20450;-71
2022/07/09 02:37:13;;;;;;;9.48;5.30;;;17.10;99.90;;;;;;5033100;28;20041;-71
2022/07/09 02:39:40;;;;;;;8.93;5.15;;;17.10;99.90;;;;;;5033152;28;20053;-71
2022/07/09 02:42:08;;;;;;;9.35;5.40;;;17.00;99.90;;;;;;5033854;28;20068;-71
2022/07/09 02:44:35;;;;;;;11.70;5.40;;;17.00;99.90;;;;;;5032987;28;20042;-71
2022/07/09 02:47:04;;;;;;;9.32;5.35;;;17.00;99.90;;;;;;5033623;28;20460;-71
2022/07/09 02:49:31;;;;;;;9.40;5.55;;;16.90;99.90;;;;;;5033078;28;20069;-71
2022/07/09 02:51:59;;;;;;;8.48;5.60;;;17.00;99.90;;;;;;5033093;28;20124;-71
2022/07/09 02:54:27;;;;;;;10.25;5.30;;;17.00;99.90;;;;;;5033059;28;20041;-71
2022/07/09 02:56:54;;;;;;;11.95;5.95;;;17.00;99.90;;;;;;5033150;28;20096;-71
2022/07/09 02:59:21;;;;;;;8.73;5.78;;;16.90;99.90;;;;;;5046246;28;20061;-71
2022/07/09 03:01:48;;;;;;;8.65;5.15;;;16.90;99.90;;;;;;5045189;28;20045;-71
2022/07/09 03:04:17;;;;;;;9.10;5.40;;;16.90;99.90;;;;;;5032905;28;20092;-71
2022/07/09 03:06:44;;;;;;;10.32;6.07;;;16.90;99.90;;;;;;5015767;28;20489;-71
2022/07/09 03:09:12;;;;;;;10.48;6.78;;;17.00;99.90;;;;;;5015389;28;20068;-71
2022/07/09 03:11:40;;;;;;;10.65;6.13;;;17.00;99.90;;;;;;5015536;28;20505;-72
2022/07/09 03:14:07;;;;;;;9.38;5.88;;;17.00;99.90;;;;;;5014698;28;20053;-71
2022/07/09 03:16:35;;;;;;;9.93;6.00;;;17.00;99.90;;;;;;5032847;28;20037;-71
2022/07/09 03:19:02;;;;;;;10.77;5.75;;;17.00;99.90;;;;;;5037583;28;20071;-71
2022/07/09 03:21:31;;;;;;;10.27;6.50;;;16.90;99.90;;;;;;5053263;28;20053;-71
2022/07/09 03:23:58;;;;;;;11.30;6.22;;;17.00;99.90;;;;;;5053735;28;20041;-71
2022/07/09 03:26:25;;;;;;;12.57;6.30;;;17.00;99.90;;;;;;5038200;28;20072;-72
2022/07/09 03:28:53;;;;;;;12.95;6.00;;;17.00;99.90;;;;;;5033005;28;20068;-71
2022/07/09 03:31:20;;;;;;;12.82;5.82;;;17.00;99.90;;;;;;5033298;28;20045;-71
2022/07/09 03:33:47;;;;;;;11.45;6.20;;;16.90;99.90;;;;;;5032843;28;20049;-71
2022/07/09 03:36:15;;;;;;;10.90;6.13;;;16.90;99.90;;;;;;5032828;28;20065;-71
2022/07/09 03:38:43;;;;;;;7.95;5.05;;;16.90;99.90;;;;;;5032933;28;20045;-71
2022/07/09 03:41:11;;;;;;;11.35;5.82;;;16.90;99.90;;;;;;5033679;28;20053;-71
2022/07/09 03:43:38;;;;;;;10.20;5.70;;;16.90;99.90;;;;;;5035644;28;20069;-71
2022/07/09 03:46:05;;;;;;;12.25;5.90;;;16.90;99.90;;;;;;5035202;28;20108;-71
2022/07/09 03:48:32;;;;;;;13.00;5.97;;;16.90;99.90;;;;;;5034098;28;20045;-71
2022/07/09 03:51:00;;;;;;;10.45;5.97;;;16.90;99.90;;;;;;5032829;28;20095;-71
2022/07/09 03:53:27;;;;;;;11.80;5.88;;;17.00;99.90;;;;;;5032581;28;20045;-71
2022/07/09 03:55:56;;;;;;;9.43;5.45;;;17.00;99.90;;;;;;5031194;28;20046;-71
2022/07/09 03:58:24;;;;;;;9.25;6.00;;;16.90;99.90;;;;;;5037789;28;20072;-71
2022/07/09 04:00:52;;;;;;;12.32;6.07;;;16.90;99.90;;;;;;5052387;28;20546;-71
2022/07/09 04:03:19;;;;;;;9.75;5.97;;;16.90;99.90;;;;;;5014641;28;20061;-71
2022/07/09 04:05:47;;;;;;;10.10;5.85;;;16.90;99.90;;;;;;5032646;28;20072;-71
2022/07/09 04:08:14;;;;;;;12.93;5.68;;;16.90;99.90;;;;;;5032342;28;20120;-71
2022/07/09 04:10:42;;;;;;;13.90;7.10;;;16.90;99.90;;;;;;5014277;28;20049;-72
2022/07/09 04:13:11;;;;;;;12.35;6.65;;;16.90;99.90;;;;;;5016326;28;20101;-71
2022/07/09 04:15:38;;;;;;;20.17;8.38;;;16.90;99.90;;;;;;5016545;28;20429;-71
2022/07/09 04:18:05;;;;;;;13.15;6.35;;;16.90;99.90;;;;;;5016241;28;20415;-72
2022/07/09 04:20:32;;;;;;;10.57;5.80;;;16.90;99.90;;;;;;5032647;28;20045;-71
2022/07/09 04:22:59;;;;;;;11.50;5.65;;;16.90;99.90;;;;;;5036220;28;20045;-71
2022/07/09 04:25:27;;;;;;;8.57;5.07;;;16.80;99.90;;;;;;5035312;28;20390;-71
2022/07/09 04:27:54;;;;;;;9.90;5.55;;;16.80;99.90;;;;;;5035607;28;20033;-71
2022/07/09 04:30:23;;;;;;;10.13;5.00;;;16.80;99.90;;;;;;5036195;28;20148;-71
2022/07/09 04:32:50;;;;;;;8.27;5.32;;;16.80;99.90;;;;;;5036048;28;20504;-71
2022/07/09 04:35:17;;;;;;;10.90;4.75;;;16.80;99.90;;;;;;5036168;28;20045;-71
2022/07/09 04:37:45;;;;;;;10.82;5.10;;;16.80;99.90;;;;;;5035191;28;20051;-71
2022/07/09 04:40:13;;;;;;;11.85;5.68;;;16.90;99.90;;;;;;5035932;28;20053;-71
2022/07/09 04:42:40;;;;;;;9.20;5.18;;;16.80;99.90;;;;;;5035377;28;20069;-71
2022/07/09 04:45:08;;;;;;;12.55;5.65;;;16.90;99.90;;;;;;5035467;28;20046;-71
2022/07/09 04:47:37;;;;;;;10.45;5.20;;;16.90;99.90;;;;;;5035432;28;20096;-71
2022/07/09 04:50:05;;;;;;;13.00;6.28;;;16.90;99.90;;;;;;5035265;28;20072;-71
2022/07/09 04:52:32;;;;;;;9.70;5.85;;;16.90;99.90;;;;;;5034993;28;20043;-71
2022/07/09 04:54:59;;;;;;;11.35;5.72;;;16.90;99.90;;;;;;5035733;28;20134;-71
2022/07/09 04:57:26;;;;;;;10.35;5.90;;;17.00;99.90;;;;;;5042578;28;20397;-71
2022/07/09 04:59:58;;;;;;;12.07;6.50;;;17.00;99.90;;;;;;5068208;28;20063;-71
2022/07/09 05:02:25;;;;;;;11.02;7.63;;;17.10;99.90;;;;;;5056738;28;20049;-70
2022/07/09 05:04:54;;;;;;;11.52;5.65;;;17.10;99.90;;;;;;5049802;28;20037;-71
2022/07/09 05:07:21;;;;;;;9.55;5.65;;;17.10;99.90;;;;;;5036116;28;20124;-71
2022/07/09 05:09:48;;;;;;;13.13;8.02;;;17.20;99.90;;;;;;5035138;28;20041;-71
2022/07/09 05:12:16;;;;;;;12.35;7.57;;;17.20;99.90;;;;;;5035264;28;20041;-71
2022/07/09 05:14:43;;;;;;;8.23;5.07;;;17.30;99.90;;;;;;5035107;28;20042;-71
2022/07/09 05:17:10;;;;;;;8.38;5.90;;;17.30;99.90;;;;;;5035272;28;20088;-71
2022/07/09 05:19:38;;;;;;;8.05;4.88;;;17.40;99.90;;;;;;5043325;28;20122;-71
2022/07/09 05:22:07;;;;;;;9.02;5.13;;;17.40;99.90;;;;;;5035543;28;20076;-71
2022/07/09 05:24:34;;;;;;;8.30;4.80;;;17.40;99.90;;;;;;5054454;28;20040;-71
2022/07/09 05:27:01;;;;;;;10.43;4.63;;;17.40;99.90;;;;;;5054659;28;20091;-71
2022/07/09 05:29:29;;;;;;;11.98;4.22;;;17.40;99.90;;;;;;5054691;28;20095;-71
2022/07/09 05:31:57;;;;;;;10.27;4.63;;;17.50;99.90;;;;;;5036804;28;20126;-71
2022/07/09 05:34:24;;;;;;;9.20;3.83;;;17.50;99.90;;;;;;5035838;28;20042;-71
2022/07/09 05:36:52;;;;;;;9.65;4.18;;;17.60;99.90;;;;;;5034388;28;20041;-71
2022/07/09 05:39:21;;;;;;;8.77;3.90;;;17.70;99.90;;;;;;5034409;28;20038;-71
2022/07/09 05:41:49;;;;;;;7.15;3.95;;;17.80;99.90;;;;;;5034286;28;20064;-71
2022/07/09 05:44:17;;;;;;;7.15;3.88;;;17.90;99.90;;;;;;5034049;28;20061;-70
2022/07/09 05:46:44;;;;;;;8.27;3.63;;;18.10;99.90;;;;;;5032391;28;20050;-73
2022/07/09 05:49:11;;;;;;;8.48;4.63;;;18.30;99.90;;;;;;5034577;28;20120;-71
2022/07/09 05:51:39;;;;;;;10.15;3.95;;;18.70;99.90;;;;;;5034596;28;20413;-71
2022/07/09 05:54:06;;;;;;;8.75;3.25;;;19.00;99.90;;;;;;5034306;28;20061;-71
2022/07/09 05:56:36;;;;;;;8.25;3.85;;;19.10;99.90;;;;;;5033174;28;20049;-71
2022/07/09 05:59:03;;;;;;;8.90;3.72;;;19.40;99.90;;;;;;5044939;28;20128;-71
2022/07/09 06:01:32;;;;;;;7.93;4.10;;;19.70;99.90;;;;;;5048535;28;20103;-71
2022/07/09 06:03:59;;;;;;;10.40;3.78;;;20.00;99.90;;;;;;5033671;28;20092;-72
2022/07/09 06:06:26;;;;;;;7.68;3.00;;;20.40;99.90;;;;;;5016278;28;20053;-71
2022/07/09 06:08:53;;;;;;;9.23;3.65;;;20.50;99.90;;;;;;5036286;28;20037;-72
2022/07/09 06:11:21;;;;;;;5.43;2.92;;;20.70;99.90;;;;;;5035359;28;20037;-70
2022/07/09 06:13:49;;;;;;;8.40;4.32;;;20.60;99.90;;;;;;5033668;28;20041;-70
2022/07/09 06:16:17;;;;;;;6.90;4.07;;;20.60;99.90;;;;;;5039831;28;20095;-70
2022/07/09 06:18:44;;;;;;;8.80;4.88;;;20.20;99.90;;;;;;5016164;28;20408;-70
2022/07/09 06:21:11;;;;;;;6.63;3.30;;;20.40;99.90;;;;;;5033800;28;20084;-70
2022/07/09 06:23:38;;;;;;;8.63;3.17;;;20.30;99.90;;;;;;5033358;28;20076;-70
2022/07/09 06:26:06;;;;;;;9.85;3.22;;;20.30;99.90;;;;;;5035493;28;20407;-70
2022/07/09 06:28:36;;;;;;;4.93;2.80;;;20.10;99.90;;;;;;5014683;28;20045;-71
2022/07/09 06:31:05;;;;;;;7.47;3.90;;;20.10;99.90;;;;;;5033136;28;20064;-72
2022/07/09 06:33:32;;;;;;;5.85;3.53;;;19.90;99.90;;;;;;5033004;28;20056;-71
2022/07/09 06:36:00;;;;;;;11.82;7.13;;;19.80;99.90;;;;;;5033543;28;20076;-71
2022/07/09 06:38:30;;;;;;;9.07;4.18;;;19.80;99.90;;;;;;5034161;28;20049;-70
2022/07/09 06:40:58;;;;;;;9.88;5.20;;;19.70;99.90;;;;;;5034868;28;20129;-75
2022/07/09 06:43:25;;;;;;;8.30;4.10;;;19.40;99.90;;;;;;5036556;28;20397;-71
2022/07/09 06:45:54;;;;;;;8.63;5.85;;;19.40;99.90;;;;;;5051309;28;20083;-71
2022/07/09 06:48:25;;;;;;;9.75;4.55;;;19.30;99.90;;;;;;5051979;28;20069;-71
2022/07/09 06:50:52;;;;;;;13.27;4.65;;;19.40;99.90;;;;;;5033100;28;20057;-71
2022/07/09 06:53:19;;;;;;;11.20;4.20;;;19.40;99.90;;;;;;5042242;28;20405;-71
2022/07/09 06:55:46;;;;;;;19.25;5.00;;;19.30;99.90;;;;;;5033321;28;20087;-69
2022/07/09 06:58:13;;;;;;;6.80;3.63;;;19.30;99.90;;;;;;5036942;28;20064;-69
2022/07/09 07:00:41;;;;;;;8.95;3.78;;;19.40;99.90;;;;;;5052952;28;20045;-69
2022/07/09 07:03:08;;;;;;;11.75;4.00;;;19.30;99.90;;;;;;5053148;28;20511;-69
2022/07/09 07:05:37;;;;;;;6.82;3.47;;;19.30;99.90;;;;;;5053652;28;20041;-70
2022/07/09 07:08:04;;;;;;;6.88;3.00;;;19.10;99.90;;;;;;5049752;28;20044;-70
2022/07/09 07:10:32;;;;;;;8.25;3.40;;;19.00;99.90;;;;;;5032097;28;20049;-70
2022/07/09 07:12:59;;;;;;;8.27;4.90;;;18.90;99.90;;;;;;5032461;28;20037;-70
2022/07/09 07:15:26;;;;;;;6.82;2.90;;;18.90;99.90;;;;;;5015342;28;20092;-70
2022/07/09 07:17:54;;;;;;;8.48;3.35;;;18.90;99.90;;;;;;5015521;28;20144;-70
2022/07/09 07:20:24;;;;;;;7.95;3.28;;;19.10;99.90;;;;;;5017921;28;20045;-70
2022/07/09 07:22:53;;;;;;;9.27;3.30;;;19.20;99.90;;;;;;5032155;28;20121;-69
2022/07/09 07:25:20;;;;;;;9.55;3.33;;;19.20;99.90;;;;;;5032969;28;20079;-69
2022/07/09 07:27:48;;;;;;;11.02;3.17;;;19.40;99.90;;;;;;5032247;28;20041;-69
2022/07/09 07:30:15;;;;;;;6.70;2.83;;;19.60;99.90;;;;;;5031341;28;20444;-70
2022/07/09 07:32:42;;;;;;;5.47;2.47;;;19.70;99.90;;;;;;5029892;28;20069;-71
2022/07/09 07:35:10;;;;;;;11.55;3.67;;;19.90;99.90;;;;;;5036370;28;20527;-69
2022/07/09 07:37:37;;;;;;;9.07;4.03;;;20.00;99.90;;;;;;5032652;28;20037;-70
2022/07/09 07:40:07;;;;;;;7.80;2.88;;;20.20;99.90;;;;;;5031503;28;20124;-69
2022/07/09 07:42:34;;;;;;;8.48;3.13;;;20.20;99.90;;;;;;5033045;28;20061;-69
2022/07/09 07:45:02;;;;;;;9.40;4.10;;;20.30;99.90;;;;;;5034640;28;20382;-70
2022/07/09 07:47:29;;;;;;;7.45;2.80;;;20.30;99.90;;;;;;5036126;28;20065;-69
2022/07/09 07:49:56;;;;;;;9.05;2.80;;;20.60;99.90;;;;;;5036526;28;20428;-69
2022/07/09 07:52:23;;;;;;;8.60;3.30;;;20.70;99.90;;;;;;5036704;28;20080;-69
2022/07/09 07:54:51;;;;;;;6.70;2.80;;;21.00;99.90;;;;;;5031209;28;20038;-69
2022/07/09 07:57:21;;;;;;;9.77;2.88;;;21.10;99.90;;;;;;5038672;28;20045;-69
2022/07/09 07:59:48;;;;;;;7.90;3.42;;;21.10;99.90;;;;;;5042419;28;20505;-69
2022/07/09 08:02:16;;;;;;;7.72;2.70;;;21.40;99.90;;;;;;5035502;28;20045;-69
2022/07/09 08:04:43;;;;;;;6.72;2.50;;;21.40;99.90;;;;;;5034358;28;20121;-69
2022/07/09 08:07:11;;;;;;;9.00;3.53;;;21.70;99.90;;;;;;5036438;28;20072;-70
2022/07/09 08:09:38;;;;;;;7.63;3.30;;;22.00;99.90;;;;;;5036370;28;20057;-69
2022/07/09 08:12:06;;;;;;;5.53;2.83;;;22.10;99.90;;;;;;5036264;28;20041;-69
2022/07/09 08:14:35;;;;;;;5.85;2.83;;;22.40;99.90;;;;;;5035851;28;20464;-69
2022/07/09 08:17:02;;;;;;;7.35;2.78;;;22.70;99.90;;;;;;5036183;28;20046;-69
2022/07/09 08:19:29;;;;;;;8.63;2.85;;;22.60;99.90;;;;;;5043652;28;20480;-69
2022/07/09 08:21:56;;;;;;;8.98;3.03;;;22.20;99.90;;;;;;5038580;28;20054;-69
2022/07/09 08:24:24;;;;;;;6.07;3.03;;;22.20;99.90;;;;;;5035094;28;20128;-68
2022/07/09 08:26:51;;;;;;;7.63;2.67;;;22.00;99.90;;;;;;5037801;28;20061;-68
2022/07/09 08:29:18;;;;;;;9.20;3.42;;;21.80;99.90;;;;;;5035885;28;20092;-68
2022/07/09 08:31:49;;;;;;;13.20;4.45;;;21.80;99.90;;;;;;5035220;28;20393;-68
2022/07/09 08:34:16;;;;;;;4.53;2.67;;;21.60;99.90;;;;;;5034463;28;20080;-69
2022/07/09 08:36:44;;;;;;;7.15;3.53;;;21.60;99.90;;;;;;5034538;28;20038;-69
2022/07/09 08:39:11;;;;;;;7.03;2.88;;;21.40;99.90;;;;;;5035605;28;20092;-68
2022/07/09 08:41:38;;;;;;;8.43;3.78;;;21.60;99.90;;;;;;5035513;28;20111;-68
2022/07/09 08:44:10;;;;;;;5.80;3.58;;;21.70;99.90;;;;;;5035153;28;20128;-68
2022/07/09 08:46:39;;;;;;;7.22;3.92;;;21.60;99.90;;;;;;5034373;28;20103;-68
2022/07/09 08:49:08;;;;;;;9.27;4.15;;;21.70;99.90;;;;;;5035605;28;20408;-68
2022/07/09 08:51:36;;;;;;;5.88;3.20;;;21.70;99.90;;;;;;5035348;28;20072;-68
2022/07/09 08:54:04;;;;;;;10.18;4.15;;;21.80;99.90;;;;;;5034563;28;20140;-69
2022/07/09 08:56:31;;;;;;;10.35;3.25;;;22.00;99.90;;;;;;5034892;28;20065;-69
2022/07/09 08:58:59;;;;;;;6.53;3.25;;;22.10;99.90;;;;;;5045033;28;20216;-69
2022/07/09 09:01:27;;;;;;;6.90;3.78;;;22.40;99.90;;;;;;5046302;28;20095;-68
2022/07/09 09:03:55;;;;;;;7.45;3.45;;;22.60;99.90;;;;;;5035263;28;20041;-69
2022/07/09 09:06:24;;;;;;;5.75;2.65;;;22.80;99.90;;;;;;5035912;28;20045;-70
2022/07/09 09:08:55;;;;;;;6.88;2.88;;;22.80;99.90;;;;;;5035341;28;20499;-69
2022/07/09 09:11:24;;;;;;;7.68;3.42;;;22.90;99.90;;;;;;5035166;28;20045;-69
2022/07/09 09:13:53;;;;;;;9.63;3.35;;;22.80;99.90;;;;;;5035003;28;20456;-68
2022/07/09 09:16:22;;;;;;;9.07;3.15;;;22.50;99.90;;;;;;5035193;28;20045;-69
2022/07/09 09:18:51;;;;;;;6.57;2.90;;;22.40;99.90;;;;;;5033637;28;20055;-69
2022/07/09 09:21:24;;;;;;;8.73;4.10;;;22.30;99.90;;;;;;5006727;28;20049;-69
2022/07/09 09:23:53;;;;;;;8.93;3.72;;;22.30;99.90;;;;;;5034500;28;20055;-69
2022/07/09 09:26:22;;;;;;;7.53;3.45;;;22.30;99.90;;;;;;5033687;28;20561;-69
2022/07/09 09:28:51;;;;;;;7.88;4.75;;;22.30;99.90;;;;;;5034426;28;20029;-69
2022/07/09 09:31:21;;;;;;;7.72;4.00;;;22.30;99.90;;;;;;5033925;28;20041;-69
2022/07/09 09:33:49;;;;;;;13.27;5.43;;;22.60;99.90;;;;;;5034528;28;20627;-68
2022/07/09 09:36:35;;;;;;;10.30;6.97;;;23.00;99.90;;;;;;5034251;28;20496;-69
2022/07/09 09:39:16;;;;;;;7.32;3.22;;;23.40;99.90;;;;;;5034456;28;20060;-73
2022/07/09 09:41:45;;;;;;;7.70;5.57;;;23.60;99.90;;;;;;5034669;28;20494;-68
2022/07/09 09:44:14;;;;;;;18.58;11.63;;;23.30;99.90;;;;;;5034595;28;20501;-67
2022/07/09 09:46:43;;;;;;;7.97;3.58;;;22.80;99.90;;;;;;5016958;28;20049;-68
2022/07/09 09:49:14;;;;;;;12.00;6.95;;;22.10;99.90;;;;;;5033624;28;20096;-68
2022/07/09 09:51:50;;;;;;;7.57;3.10;;;21.80;99.90;;;;;;5014568;28;20128;-68
2022/07/09 09:54:18;;;;;;;7.35;3.10;;;21.80;99.90;;;;;;5024959;28;20064;-69
2022/07/09 09:56:46;;;;;;;13.98;4.18;;;21.90;99.90;;;;;;5033071;28;20468;-68
2022/07/09 09:59:15;;;;;;;27.20;18.88;;;22.20;99.90;;;;;;5016602;28;20096;-68
2022/07/09 10:01:44;;;;;;;8.07;3.17;;;22.50;99.90;;;;;;5033073;28;20041;-69
2022/07/09 10:04:13;;;;;;;18.30;14.07;;;22.90;99.90;;;;;;5033702;28;20049;-68
2022/07/09 10:06:41;;;;;;;5.82;3.53;;;23.50;99.90;;;;;;5033959;28;20045;-69
2022/07/09 10:09:13;;;;;;;8.43;3.72;;;23.70;99.90;;;;;;5033439;28;20045;-68
2022/07/09 10:11:45;;;;;;;9.98;3.42;;;23.80;99.90;;;;;;5035236;28;20455;-68
2022/07/09 10:14:30;;;;;;;7.63;3.97;;;24.10;99.90;;;;;;5033822;28;20051;-69
2022/07/09 10:17:09;;;;;;;9.82;3.53;;;24.40;99.90;;;;;;5015286;28;20505;-69
2022/07/09 10:19:37;;;;;;;7.03;2.60;;;24.30;99.90;;;;;;5034758;28;20048;-75
2022/07/09 10:22:05;;;;;;;10.18;3.42;;;23.90;99.90;;;;;;5020411;28;20135;-72
2022/07/09 10:24:35;;;;;;;9.73;7.00;;;23.90;99.90;;;;;;5034110;28;20041;-71
2022/07/09 10:27:07;;;;;;;6.95;2.78;;;23.90;99.90;;;;;;5014456;28;20038;-75
2022/07/09 10:29:36;;;;;;;15.68;8.93;;;23.50;99.90;;;;;;5030234;28;20045;-70
2022/07/09 10:32:05;;;;;;;9.40;4.10;;;23.10;99.90;;;;;;5035889;28;20106;-72
2022/07/09 10:34:47;;;;;;;6.15;2.92;;;23.20;99.90;;;;;;5018908;28;20103;-71
2022/07/09 10:37:14;;;;;;;10.07;5.03;;;23.40;99.90;;;;;;5039290;28;20068;-72
2022/07/09 10:39:54;;;;;;;14.40;5.55;;;23.50;99.90;;;;;;5040162;28;20050;-68
2022/07/09 10:42:23;;;;;;;33.25;5.75;;;23.50;99.90;;;;;;5033959;28;20116;-68
2022/07/09 10:44:51;;;;;;;7.78;3.60;;;23.60;99.90;;;;;;5033751;28;20094;-68
2022/07/09 10:47:18;;;;;;;10.00;4.90;;;24.00;99.90;;;;;;5015517;28;20095;-69
2022/07/09 10:49:46;;;;;;;7.95;3.15;;;24.40;99.90;;;;;;5033172;28;20048;-67
2022/07/09 10:52:13;;;;;;;8.90;3.10;;;24.40;99.90;;;;;;5033000;28;20037;-68
2022/07/09 10:54:49;;;;;;;7.13;3.13;;;24.40;99.90;;;;;;5033467;28;20104;-68
2022/07/09 10:57:16;;;;;;;;;;;24.30;99.90;;;;;;5032464;28;20471;-68
2022/07/09 10:59:47;;;;;;;7.47;3.42;;;24.50;99.90;;;;;;5040950;28;19924;-68
2022/07/09 11:02:20;;;;;;;6.22;3.40;;;24.70;99.90;;;;;;5032936;28;20463;-68
2022/07/09 11:04:51;;;;;;;7.43;2.72;;;24.80;99.90;;;;;;5032837;28;20048;-68
2022/07/09 11:07:22;;;;;;;6.63;3.05;;;24.70;99.90;;;;;;5032312;28;20072;-69
2022/07/09 11:09:52;;;;;;;5.38;2.83;;;24.30;99.90;;;;;;5033351;28;20041;-68
2022/07/09 11:12:21;;;;;;;7.13;3.35;;;24.50;99.90;;;;;;5033188;28;20535;-70
2022/07/09 11:14:49;;;;;;;6.38;3.58;;;25.10;99.90;;;;;;5033473;28;20124;-68
2022/07/09 11:17:17;;;;;;;5.18;3.42;;;25.40;99.90;;;;;;5033417;28;20038;-67
2022/07/09 11:19:44;;;;;;;7.18;2.90;;;25.50;99.90;;;;;;5046694;28;20044;-68
2022/07/09 11:22:12;;;;;;;5.20;2.40;;;25.70;99.90;;;;;;5051024;28;20065;-68
2022/07/09 11:24:39;;;;;;;5.95;2.45;;;26.10;99.90;;;;;;5019561;28;20069;-67
2022/07/09 11:27:09;;;;;;;4.93;2.70;;;25.90;99.90;;;;;;5037962;28;20115;-70
2022/07/09 11:29:38;;;;;;;5.45;2.70;;;25.90;99.90;;;;;;5037202;28;20045;-68
2022/07/09 11:32:06;;;;;;;5.30;2.88;;;25.80;99.90;;;;;;5041128;28;20090;-67
2022/07/09 11:34:33;;;;;;;5.72;2.90;;;25.90;99.90;;;;;;5050290;28;20076;-68
2022/07/09 11:37:01;;;;;;;4.25;2.55;;;26.10;99.90;;;;;;5049057;28;20057;-67
2022/07/09 11:39:29;;;;;;;5.38;2.58;;;26.20;99.90;;;;;;5046094;28;20037;-68
2022/07/09 11:41:58;;;;;;;4.50;2.67;;;26.10;99.90;;;;;;5006818;28;20073;-67
2022/07/09 11:44:28;;;;;;;5.57;2.70;;;25.90;99.90;;;;;;5029424;28;20120;-68
2022/07/09 11:47:09;;;;;;;5.32;2.88;;;25.90;99.90;;;;;;5025856;28;20498;-69
2022/07/09 11:49:38;;;;;;;4.43;2.70;;;25.60;99.90;;;;;;5023863;28;20073;-67
2022/07/09 11:52:17;;;;;;;5.78;2.70;;;25.00;99.90;;;;;;5024120;28;20048;-67
2022/07/09 11:54:58;;;;;;;4.22;2.50;;;24.50;99.90;;;;;;5023163;28;20513;-67
2022/07/09 11:57:26;;;;;;;4.72;2.45;;;24.10;99.90;;;;;;5000325;28;20109;-69
2022/07/09 11:59:55;;;;;;;4.47;2.88;;;24.20;99.90;;;;;;5017527;28;20519;-68
2022/07/09 12:02:27;;;;;;;4.57;2.22;;;24.40;99.90;;;;;;5017572;28;20042;-68
2022/07/09 12:04:54;;;;;;;6.80;2.65;;;24.30;99.90;;;;;;5017733;28;20052;-68
2022/07/09 12:07:21;;;;;;;5.57;3.00;;;24.30;99.90;;;;;;5016664;28;20097;-67
2022/07/09 12:09:59;;;;;;;8.82;5.43;;;24.20;99.90;;;;;;4998416;28;20050;-69
2022/07/09 12:12:27;;;;;;;7.70;2.78;;;24.50;99.90;;;;;;5016448;28;20037;-69
2022/07/09 12:14:56;;;;;;;5.50;2.70;;;24.70;99.90;;;;;;5016478;28;20052;-68
2022/07/09 12:17:27;;;;;;;7.22;3.30;;;24.50;99.90;;;;;;5016579;28;20066;-68
2022/07/09 12:19:55;;;;;;;5.65;2.60;;;24.20;99.90;;;;;;4999243;28;20050;-67
2022/07/09 12:22:24;;;;;;;5.97;2.28;;;24.40;99.90;;;;;;5016337;28;20046;-68
2022/07/09 12:24:52;;;;;;;6.20;2.10;;;24.20;99.90;;;;;;5016591;28;20073;-67
2022/07/09 12:27:20;;;;;;;5.00;2.20;;;24.40;99.90;;;;;;5016325;28;20501;-67
2022/07/09 12:29:48;;;;;;;4.03;1.98;;;24.80;99.90;;;;;;5015361;28;20041;-68
2022/07/09 12:32:16;;;;;;;3.47;1.90;;;25.10;99.90;;;;;;5016697;28;20052;-69
2022/07/09 12:34:44;;;;;;;4.47;2.25;;;25.10;99.90;;;;;;5016103;28;20073;-67
2022/07/09 12:37:11;;;;;;;4.38;2.40;;;24.80;99.90;;;;;;5016133;28;20042;-68
2022/07/09 12:39:38;;;;;;;4.95;2.65;;;24.80;99.90;;;;;;5018188;28;20132;-67
2022/07/09 12:42:06;;;;;;;4.13;2.20;;;24.70;99.90;;;;;;5036743;28;20112;-68
2022/07/09 12:44:33;;;;;;;3.33;2.10;;;24.80;99.90;;;;;;5018264;28;20111;-67
2022/07/09 12:47:00;;;;;;;4.10;2.10;;;24.90;99.90;;;;;;5035571;28;20049;-67
2022/07/09 12:49:29;;;;;;;5.00;2.20;;;25.00;99.90;;;;;;5035422;28;20045;-68